Time;durP1;ratioP1;P1;durP2;ratioP2;P2;SDS_P1;SDS_P2;PMS_P1;PMS_P2;Temp;Humidity;BMP_temperature;BMP_pressure;BME280_temperature;BME280_humidity;BME280_pressure;Samples;Min_cycle;Max_cycle;Signal;HPM_P1;HPM_P2
2021/11/10 00:00:07;;;;;;;1050.07;980.80;;;;;;;7.27;67.80;102322.28;698787;28;22355;-69
2021/11/10 00:00:34;;;;;;;1062.32;992.30;;;;;;;7.26;67.65;102323.25;695330;28;137680;-71
2021/11/10 00:00:55;;;;;;;1060.35;990.40;;;;;;;7.24;67.55;102320.72;698657;28;22409;-70
2021/11/10 00:01:16;;;;;;;1054.32;984.90;;;;;;;7.27;67.85;102327.66;699038;28;22470;-70
2021/11/10 00:01:39;;;;;;;1064.32;994.28;;;;;;;7.25;67.60;102318.88;697853;28;45227;-70
2021/11/10 00:02:00;;;;;;;1063.85;993.92;;;;;;;7.22;67.78;102320.81;698531;28;44168;-70
2021/11/10 00:02:21;;;;;;;1058.63;989.05;;;;;;;7.22;67.69;102326.19;698948;28;23456;-70
2021/11/10 00:02:43;;;;;;;1051.43;982.20;;;;;;;7.22;67.91;102322.63;698660;28;22386;-69
2021/11/10 00:03:05;;;;;;;1059.50;989.70;;;;;;;7.24;67.83;102323.41;697792;28;69411;-70
2021/11/10 00:03:26;;;;;;;1047.15;978.10;;;;;;;7.27;68.00;102327.66;698326;28;44385;-71
2021/11/10 00:03:47;;;;;;;1047.90;978.83;;;;;;;7.26;68.13;102325.94;699285;28;22426;-70
2021/11/10 00:04:09;;;;;;;1070.47;999.50;;;;;;;7.24;68.04;102322.53;699347;28;21517;-71
2021/11/10 00:04:31;;;;;;;1063.18;993.38;;;;;;;7.20;67.67;102321.91;699082;28;23507;-70
2021/11/10 00:04:52;;;;;;;1063.30;993.47;;;;;;;7.19;67.93;102325.56;698293;28;45286;-70
2021/11/10 00:05:14;;;;;;;1057.28;987.63;;;;;;;7.19;67.76;102321.06;698479;28;21449;-70
2021/11/10 00:05:35;;;;;;;1054.47;984.83;;;;;;;7.19;68.07;102320.19;697968;28;47919;-70
2021/11/10 00:05:58;;;;;;;1049.85;980.50;;;;;;;7.17;68.07;102320.28;698896;28;21459;-70
2021/11/10 00:06:19;;;;;;;1049.55;980.25;;;;;;;7.15;68.04;102319.56;697310;28;67577;-70
2021/11/10 00:06:40;;;;;;;1066.30;996.08;;;;;;;7.13;68.17;102318.84;699115;28;19591;-70
2021/11/10 00:07:02;;;;;;;1072.60;999.90;;;;;;;7.10;68.22;102316.38;698261;28;23449;-70
2021/11/10 00:07:24;;;;;;;1068.13;998.05;;;;;;;7.11;67.91;102318.06;697679;28;67447;-70
2021/11/10 00:07:45;;;;;;;1091.60;999.90;;;;;;;7.15;68.13;102321.41;697765;28;46374;-70
2021/11/10 00:08:07;;;;;;;1100.03;999.90;;;;;;;7.15;68.53;102316.03;699236;28;23458;-70
2021/11/10 00:08:28;;;;;;;1099.03;999.90;;;;;;;7.17;68.17;102314.91;699151;28;22279;-70
2021/11/10 00:08:51;;;;;;;1099.60;999.90;;;;;;;7.17;68.42;102322.13;698264;28;44958;-70
2021/11/10 00:09:13;;;;;;;1076.60;999.90;;;;;;;7.17;68.23;102317.59;695289;28;68621;-70
2021/11/10 00:09:34;;;;;;;1074.97;999.90;;;;;;;7.17;68.33;102322.97;696231;28;22883;-70
2021/11/10 00:09:56;;;;;;;1088.53;999.90;;;;;;;7.15;68.38;102313.34;696818;28;22397;-70
2021/11/10 00:10:17;;;;;;;1061.25;991.40;;;;;;;7.15;68.22;102319.56;695521;28;45274;-70
2021/11/10 00:10:38;;;;;;;1074.25;999.90;;;;;;;7.14;68.12;102320.53;697146;28;21549;-70
2021/11/10 00:11:00;;;;;;;1065.43;995.38;;;;;;;7.13;68.16;102321.53;697710;28;45274;-70
2021/11/10 00:11:21;;;;;;;1070.72;999.65;;;;;;;7.16;68.21;102323.09;698417;28;45317;-70
2021/11/10 00:11:43;;;;;;;1078.63;999.90;;;;;;;7.12;68.11;102317.09;699456;28;21523;-70
2021/11/10 00:12:05;;;;;;;1077.95;999.90;;;;;;;7.12;68.28;102316.25;698424;28;21535;-70
2021/11/10 00:12:26;;;;;;;1080.97;999.90;;;;;;;7.12;68.22;102318.94;698255;28;46298;-71
2021/11/10 00:12:48;;;;;;;1081.10;999.90;;;;;;;7.14;68.20;102320.53;699096;28;22386;-70
2021/11/10 00:13:18;;;;;;;1078.78;999.90;;;;;;;7.14;68.23;102311.63;697431;28;67476;-70
2021/11/10 00:13:39;;;;;;;1082.43;999.90;;;;;;;7.13;68.22;102326.00;697633;28;138990;-70
2021/11/10 00:14:01;;;;;;;1067.10;997.00;;;;;;;7.09;68.41;102313.81;698349;28;5229;-71
2021/11/10 00:14:23;;;;;;;1075.63;999.90;;;;;;;7.09;68.02;102322.72;698824;28;21535;-70
2021/11/10 00:14:44;;;;;;;1064.82;994.78;;;;;;;7.08;68.18;102322.81;698251;28;45361;-70
2021/11/10 00:15:07;;;;;;;1064.80;994.90;;;;;;;7.07;68.35;102313.03;697939;28;46311;-70
2021/11/10 00:15:28;;;;;;;1060.30;990.53;;;;;;;7.06;68.23;102317.56;694108;28;69514;-71
2021/11/10 00:15:53;;;;;;;1073.53;999.90;;;;;;;7.06;68.47;102316.72;694243;28;22002;-71
2021/11/10 00:16:15;;;;;;;1064.30;994.50;;;;;;;7.04;68.33;102317.69;691285;28;161002;-71
2021/11/10 00:16:37;;;;;;;1061.47;991.75;;;;;;;7.04;68.52;102308.78;696456;28;22136;-69
2021/11/10 00:16:59;;;;;;;1068.63;998.30;;;;;;;7.05;68.53;102310.47;696053;28;23369;-70
2021/11/10 00:17:20;;;;;;;1062.55;992.63;;;;;;;7.03;68.27;102313.28;695127;28;68297;-69
2021/11/10 00:17:43;;;;;;;1075.65;999.90;;;;;;;7.03;68.55;102317.78;698354;28;21491;-70
2021/11/10 00:18:04;;;;;;;1076.80;999.90;;;;;;;7.03;68.27;102310.59;698297;28;44402;-70
2021/11/10 00:18:26;;;;;;;1062.95;993.17;;;;;;;7.03;68.30;102310.59;699437;28;22448;-71
2021/11/10 00:18:47;;;;;;;1075.68;999.90;;;;;;;7.03;68.58;102315.97;698568;28;44894;-70
2021/11/10 00:19:08;;;;;;;1079.50;999.90;;;;;;;7.02;68.46;102311.56;698363;28;44376;-70
2021/11/10 00:19:29;;;;;;;1060.68;990.78;;;;;;;7.03;68.43;102321.34;699096;28;23490;-70
2021/11/10 00:19:51;;;;;;;1069.72;998.75;;;;;;;7.01;68.69;102304.47;699507;28;21532;-70
2021/11/10 00:20:13;;;;;;;1066.05;995.95;;;;;;;7.01;68.48;102312.53;697863;28;46243;-70
2021/11/10 00:20:47;;;;;;;1067.03;996.85;;;;;;;6.99;68.60;102303.75;696383;28;96839;-70
2021/11/10 00:21:09;;;;;;;1078.93;999.90;;;;;;;6.99;68.75;102308.25;694013;28;92103;-70
2021/11/10 00:21:31;;;;;;;1058.32;988.80;;;;;;;7.04;68.63;102317.69;692759;28;45221;-70
2021/11/10 00:21:52;;;;;;;1067.22;997.17;;;;;;;7.06;68.74;102320.25;692969;28;44391;-70
2021/11/10 00:22:14;;;;;;;1063.20;993.30;;;;;;;7.07;68.63;102313.91;693259;28;46439;-70
2021/11/10 00:22:35;;;;;;;1063.35;993.55;;;;;;;7.07;68.81;102313.91;690067;28;47728;-71
2021/11/10 00:22:56;;;;;;;1062.80;993.03;;;;;;;7.09;68.54;102317.34;692318;28;23413;-70
2021/11/10 00:23:17;;;;;;;1066.82;996.72;;;;;;;7.10;68.63;102319.06;696853;28;22382;-70
2021/11/10 00:23:39;;;;;;;1073.68;999.90;;;;;;;7.12;68.69;102318.94;699464;28;21511;-70
2021/11/10 00:24:01;;;;;;;1072.15;999.90;;;;;;;7.13;68.53;102315.25;698410;28;45387;-70
2021/11/10 00:24:22;;;;;;;1071.30;999.90;;;;;;;7.14;68.77;102323.22;698059;28;44384;-70
2021/11/10 00:24:44;;;;;;;1072.78;999.90;;;;;;;7.13;68.57;102318.84;698809;28;23746;-70
2021/11/10 00:25:07;;;;;;;1076.35;999.90;;;;;;;7.14;68.57;102312.47;697370;28;45238;-71
2021/11/10 00:25:28;;;;;;;1073.80;999.90;;;;;;;7.13;68.51;102313.47;697198;28;70267;-70
2021/11/10 00:25:50;;;;;;;1074.88;999.90;;;;;;;7.13;68.63;102309.91;698837;28;22261;-71
2021/11/10 00:26:12;;;;;;;1076.75;999.90;;;;;;;7.14;68.41;102312.47;698146;28;22393;-70
2021/11/10 00:26:33;;;;;;;1075.65;999.90;;;;;;;7.12;68.20;102313.56;697944;28;46312;-70
2021/11/10 00:26:54;;;;;;;1072.70;999.90;;;;;;;7.12;68.22;102316.25;698617;28;21497;-70
2021/11/10 00:27:15;;;;;;;1073.63;999.90;;;;;;;7.10;68.33;102318.19;699055;28;22416;-70
2021/11/10 00:27:37;;;;;;;1072.60;999.90;;;;;;;7.09;68.34;102311.13;698237;28;46367;-70
2021/11/10 00:27:58;;;;;;;1073.72;999.90;;;;;;;7.08;68.20;102315.63;694538;28;46316;-70
2021/11/10 00:28:20;;;;;;;1072.57;999.90;;;;;;;7.07;68.08;102319.28;695468;28;22222;-70
2021/11/10 00:28:41;;;;;;;1074.68;999.90;;;;;;;7.03;68.05;102310.59;695438;28;46384;-71
2021/11/10 00:29:04;;;;;;;1072.93;999.90;;;;;;;7.02;68.07;102322.31;699025;28;23514;-70
2021/11/10 00:29:28;;;;;;;1060.47;990.70;;;;;;;6.98;68.22;102307.41;689146;28;136428;-69
2021/11/10 00:29:50;;;;;;;1036.28;967.88;;;;;;;6.98;68.10;102312.75;694459;28;23988;-70
2021/11/10 00:30:11;;;;;;;1038.57;969.97;;;;;;;6.97;68.31;102315.56;693803;28;46483;-70
2021/11/10 00:30:33;;;;;;;1050.82;981.55;;;;;;;6.95;68.21;102317.53;690648;28;21557;-70
2021/11/10 00:30:55;;;;;;;1042.82;974.13;;;;;;;6.94;68.28;102323.84;690030;28;46294;-70
2021/11/10 00:31:18;;;;;;;1054.18;984.75;;;;;;;6.92;68.24;102323.13;689450;28;44756;-70
2021/11/10 00:31:40;;;;;;;1053.95;984.55;;;;;;;6.91;68.24;102324.97;690428;28;69297;-70
2021/11/10 00:32:02;;;;;;;1084.05;999.90;;;;;;;6.90;68.24;102322.38;691192;28;44408;-70
2021/11/10 00:32:23;;;;;;;1081.78;999.90;;;;;;;6.88;68.41;102322.50;689785;28;46048;-70
2021/11/10 00:32:45;;;;;;;1073.35;999.90;;;;;;;6.88;68.46;102321.63;693781;28;22478;-70
2021/11/10 00:33:07;;;;;;;1080.60;999.90;;;;;;;6.87;68.55;102322.63;694216;28;44359;-70
2021/11/10 00:33:28;;;;;;;1084.72;999.90;;;;;;;6.84;68.48;102316.47;697676;28;44351;-70
2021/11/10 00:33:50;;;;;;;1085.30;999.90;;;;;;;6.85;68.58;102312.84;698510;28;23321;-70
2021/11/10 00:34:12;;;;;;;1085.25;999.90;;;;;;;6.84;68.51;102318.31;698144;28;46385;-70
2021/11/10 00:34:34;;;;;;;1082.13;999.90;;;;;;;6.84;68.58;102315.63;698628;28;44562;-70
2021/11/10 00:34:55;;;;;;;1080.63;999.90;;;;;;;6.81;68.69;102314.03;699478;28;45259;-70
2021/11/10 00:35:16;;;;;;;1085.00;999.90;;;;;;;6.82;68.52;102320.28;701433;28;24174;-70
2021/11/10 00:35:39;;;;;;;1084.22;999.90;;;;;;;6.79;68.58;102317.81;700744;28;44362;-70
2021/11/10 00:36:00;;;;;;;1087.05;999.90;;;;;;;6.77;68.68;102325.97;700542;28;46293;-70
2021/11/10 00:36:21;;;;;;;1086.10;999.90;;;;;;;6.76;68.78;102316.19;701683;28;22403;-70
2021/11/10 00:36:44;;;;;;;1085.30;999.90;;;;;;;6.77;68.66;102325.97;698350;28;22386;-70
2021/11/10 00:37:06;;;;;;;1084.85;999.90;;;;;;;6.79;68.99;102317.81;697263;28;69414;-70
2021/11/10 00:37:27;;;;;;;1088.85;999.90;;;;;;;6.76;68.93;102321.56;695844;28;45110;-70
2021/11/10 00:37:48;;;;;;;1091.13;999.90;;;;;;;6.78;69.04;102316.09;694218;28;22368;-69
2021/11/10 00:38:12;;;;;;;1086.63;999.90;;;;;;;6.77;68.91;102319.72;690222;28;92206;-70
2021/11/10 00:38:34;;;;;;;1083.32;999.90;;;;;;;6.75;68.94;102319.00;691815;28;23160;-70
2021/11/10 00:38:57;;;;;;;1084.70;999.90;;;;;;;6.75;68.96;102317.16;692801;28;44361;-69
2021/11/10 00:39:18;;;;;;;1081.53;999.90;;;;;;;6.77;68.99;102319.72;689350;28;68352;-69
2021/11/10 00:39:40;;;;;;;1069.40;999.05;;;;;;;6.79;68.99;102318.66;693569;28;23645;-70
2021/11/10 00:40:02;;;;;;;1050.43;981.30;;;;;;;6.79;69.23;102310.59;693171;28;46670;-70
2021/11/10 00:40:24;;;;;;;1051.47;982.17;;;;;;;6.82;69.29;102315.75;696894;28;40520;-69
2021/11/10 00:40:46;;;;;;;1075.10;999.90;;;;;;;6.81;69.28;102315.84;696510;28;68407;-70
2021/11/10 00:41:08;;;;;;;1076.53;999.90;;;;;;;6.78;68.94;102305.34;695805;28;21596;-70
2021/11/10 00:41:30;;;;;;;1074.57;999.90;;;;;;;6.81;69.04;102313.16;690653;28;46279;-70
2021/11/10 00:41:51;;;;;;;1078.88;999.90;;;;;;;6.81;69.15;102313.16;689964;28;46444;-70
2021/11/10 00:42:12;;;;;;;1069.70;999.25;;;;;;;6.81;68.94;102313.16;691298;28;22304;-70
2021/11/10 00:42:33;;;;;;;1067.20;996.97;;;;;;;6.83;69.00;102309.41;689923;28;23449;-70
2021/11/10 00:42:55;;;;;;;1069.72;999.35;;;;;;;6.81;68.94;102314.03;692830;28;22399;-70
2021/11/10 00:43:16;;;;;;;1078.88;999.90;;;;;;;6.80;68.89;102309.63;691912;28;46479;-69
2021/11/10 00:43:37;;;;;;;1081.80;999.90;;;;;;;6.79;68.88;102318.66;696531;28;22390;-69
2021/11/10 00:44:00;;;;;;;1079.05;999.90;;;;;;;6.77;68.95;102315.25;692919;28;22364;-70
2021/11/10 00:44:22;;;;;;;1076.40;999.90;;;;;;;6.77;68.90;102317.03;689192;28;69464;-70
2021/11/10 00:44:43;;;;;;;1062.03;992.00;;;;;;;6.75;68.76;102311.78;689406;28;46405;-70
2021/11/10 00:45:05;;;;;;;1067.18;996.92;;;;;;;6.76;68.84;102312.66;690785;28;22401;-70
2021/11/10 00:45:26;;;;;;;1082.20;999.90;;;;;;;6.78;69.10;102319.63;691783;28;46401;-71
2021/11/10 00:45:49;;;;;;;1080.47;999.90;;;;;;;6.78;68.84;102321.47;691233;28;22537;-70
2021/11/10 00:46:10;;;;;;;1086.78;999.90;;;;;;;6.78;69.04;102321.47;688121;28;69400;-70
2021/11/10 00:46:32;;;;;;;1083.35;999.90;;;;;;;6.77;68.77;102320.59;691611;28;46683;-69
2021/11/10 00:46:53;;;;;;;1084.93;999.90;;;;;;;6.80;68.97;102324.88;690329;28;22421;-70
2021/11/10 00:47:15;;;;;;;1083.68;999.90;;;;;;;6.79;69.00;102315.97;690848;28;21523;-70
2021/11/10 00:47:36;;;;;;;1054.10;984.58;;;;;;;6.77;68.89;102320.59;689715;28;45268;-71
2021/11/10 00:47:59;;;;;;;1046.93;977.72;;;;;;;6.77;68.82;102319.72;691507;28;21520;-69
2021/11/10 00:48:20;;;;;;;1050.43;981.15;;;;;;;6.75;68.79;102322.53;692172;28;69560;-69
2021/11/10 00:48:42;;;;;;;1060.10;990.22;;;;;;;6.75;68.98;102316.31;696135;28;21531;-70
2021/11/10 00:49:03;;;;;;;1073.40;999.90;;;;;;;6.74;69.05;102320.84;696424;28;45271;-70
2021/11/10 00:49:25;;;;;;;1071.60;999.90;;;;;;;6.74;68.85;102320.84;699566;28;44368;-70
2021/11/10 00:49:47;;;;;;;1071.50;999.90;;;;;;;6.74;68.94;102319.97;698247;28;23456;-71
2021/11/10 00:50:09;;;;;;;1077.50;999.90;;;;;;;6.67;68.59;102315.03;697267;28;46309;-69
2021/11/10 00:50:30;;;;;;;1064.75;994.67;;;;;;;6.68;68.94;102323.97;695301;28;46687;-70
2021/11/10 00:50:52;;;;;;;1045.65;976.75;;;;;;;6.65;68.74;102316.13;696413;28;21516;-70
2021/11/10 00:51:14;;;;;;;1039.03;970.53;;;;;;;6.64;68.60;102325.16;694916;28;66441;-70
2021/11/10 00:51:35;;;;;;;1042.00;973.22;;;;;;;6.61;69.06;102323.53;696111;28;45098;-69
2021/11/10 00:51:56;;;;;;;1053.32;983.83;;;;;;;6.61;69.05;102315.47;698843;28;21431;-70
2021/11/10 00:52:18;;;;;;;1075.57;999.90;;;;;;;6.60;69.14;102324.53;697191;28;67466;-69
2021/11/10 00:52:39;;;;;;;1082.72;999.90;;;;;;;6.61;69.21;102318.16;699398;28;23442;-69
2021/11/10 00:53:03;;;;;;;1081.50;999.90;;;;;;;6.64;69.21;102322.47;698752;28;22405;-70
2021/11/10 00:53:24;;;;;;;1082.75;999.90;;;;;;;6.62;69.24;102319.91;697036;28;68292;-69
2021/11/10 00:53:45;;;;;;;1077.28;999.90;;;;;;;6.60;69.08;102316.47;699615;28;854;-70
2021/11/10 00:54:06;;;;;;;1059.95;990.30;;;;;;;6.59;69.15;102316.59;695559;28;45226;-70
2021/11/10 00:54:30;;;;;;;1039.47;970.97;;;;;;;6.60;69.19;102321.84;691203;28;21454;-69
2021/11/10 00:54:51;;;;;;;1049.13;980.15;;;;;;;6.58;69.12;102320.22;689779;28;67493;-69
2021/11/10 00:55:12;;;;;;;1064.95;994.90;;;;;;;6.57;69.20;102313.16;690527;28;23585;-70
2021/11/10 00:55:34;;;;;;;1074.03;999.90;;;;;;;6.56;69.09;102322.19;687414;28;44340;-70
2021/11/10 00:55:56;;;;;;;1048.25;979.08;;;;;;;6.55;69.26;102318.66;688571;28;22402;-69
2021/11/10 00:56:17;;;;;;;1055.57;986.03;;;;;;;6.55;69.32;102315.97;690452;28;69254;-69
2021/11/10 00:56:38;;;;;;;1069.97;999.03;;;;;;;6.55;69.40;102320.44;695877;28;22398;-70
2021/11/10 00:56:59;;;;;;;1057.72;988.00;;;;;;;6.54;69.13;102319.59;696515;28;22572;-69
2021/11/10 00:57:21;;;;;;;1078.38;999.90;;;;;;;6.55;69.33;102315.97;698292;28;22371;-70
2021/11/10 00:57:43;;;;;;;1079.70;999.90;;;;;;;6.54;69.09;102318.75;697502;28;46289;-69
2021/11/10 00:58:04;;;;;;;1077.45;999.90;;;;;;;6.51;69.14;102313.59;696412;28;22468;-69
2021/11/10 00:58:26;;;;;;;1055.90;986.55;;;;;;;6.51;69.19;102313.59;696311;28;22524;-70
2021/11/10 00:58:47;;;;;;;1047.53;978.33;;;;;;;6.50;69.22;102320.78;695098;28;46409;-70
2021/11/10 00:59:08;;;;;;;1054.45;984.75;;;;;;;6.48;68.91;102318.22;693214;28;45260;-70
2021/11/10 00:59:29;;;;;;;1061.43;991.38;;;;;;;6.49;69.12;102321.78;695953;28;22389;-69
2021/11/10 00:59:52;;;;;;;1044.55;975.58;;;;;;;6.46;69.02;102313.94;689309;28;21380;-69
2021/11/10 01:00:13;;;;;;;1049.65;980.35;;;;;;;6.45;69.16;102315.75;690220;28;46301;-69
2021/11/10 01:00:35;;;;;;;1069.53;999.00;;;;;;;6.44;68.62;102311.38;691147;28;45257;-70
2021/11/10 01:00:56;;;;;;;1062.40;992.22;;;;;;;6.44;69.13;102315.84;691229;28;45002;-69
2021/11/10 01:01:18;;;;;;;1036.03;967.33;;;;;;;6.42;69.22;102313.28;692109;28;22169;-69
2021/11/10 01:01:40;;;;;;;1045.85;976.83;;;;;;;6.41;69.05;102311.59;688827;28;69663;-69
2021/11/10 01:02:01;;;;;;;1065.30;995.05;;;;;;;6.42;69.06;102317.81;692201;28;21492;-69
2021/11/10 01:02:22;;;;;;;1066.38;995.97;;;;;;;6.42;69.40;102315.97;693409;28;21532;-70
2021/11/10 01:02:44;;;;;;;1043.35;974.20;;;;;;;6.42;69.11;102309.75;693540;28;21482;-69
2021/11/10 01:03:08;;;;;;;1027.32;959.20;;;;;;;6.40;69.08;102314.38;692954;28;46296;-69
2021/11/10 01:03:29;;;;;;;1046.72;977.58;;;;;;;6.38;69.24;102310.94;692244;28;69187;-69
2021/11/10 01:03:54;;;;;;;1064.43;994.15;;;;;;;6.36;69.35;102307.50;692197;28;67469;-70
2021/11/10 01:04:15;;;;;;;1070.65;999.90;;;;;;;6.35;69.12;102312.03;694583;28;69433;-69
2021/11/10 01:04:36;;;;;;;1061.50;991.42;;;;;;;6.33;69.35;102313.94;695487;28;46286;-70
2021/11/10 01:04:57;;;;;;;1037.13;968.47;;;;;;;6.29;69.20;102313.31;696178;28;22393;-69
2021/11/10 01:05:19;;;;;;;1061.53;991.50;;;;;;;6.30;69.21;102314.16;696453;28;23801;-71
2021/11/10 01:05:40;;;;;;;1067.75;997.33;;;;;;;6.29;69.39;102307.09;695678;28;46379;-70
2021/11/10 01:06:02;;;;;;;1066.15;995.75;;;;;;;6.26;69.36;102307.31;698630;28;22389;-69
2021/11/10 01:06:24;;;;;;;1067.85;997.35;;;;;;;6.25;69.49;102310.97;690274;28;30808;-70
2021/11/10 01:06:45;;;;;;;1066.13;995.72;;;;;;;6.25;69.69;102311.84;689693;28;45411;-69
2021/11/10 01:07:06;;;;;;;1068.10;997.55;;;;;;;6.22;69.71;102305.81;688624;28;21499;-69
2021/11/10 01:07:27;;;;;;;1061.60;991.35;;;;;;;6.21;69.89;102299.59;693099;28;21001;-69
2021/11/10 01:07:49;;;;;;;1057.82;987.63;;;;;;;6.20;69.88;102302.41;693280;28;22190;-70
2021/11/10 01:08:10;;;;;;;1059.68;989.67;;;;;;;6.20;69.93;102307.78;690686;28;46741;-69
2021/11/10 01:08:32;;;;;;;1060.68;990.53;;;;;;;6.20;70.01;102310.44;689605;28;21494;-69
2021/11/10 01:08:55;;;;;;;1059.65;989.65;;;;;;;6.19;70.00;102309.59;689388;28;21571;-70
2021/11/10 01:09:17;;;;;;;1062.65;992.45;;;;;;;6.18;69.93;102301.66;688807;28;69253;-70
2021/11/10 01:09:40;;;;;;;1059.32;989.28;;;;;;;6.19;70.00;102312.28;689988;28;69275;-69
2021/11/10 01:10:03;;;;;;;1056.18;986.17;;;;;;;6.18;69.79;102312.41;688085;28;69392;-69
2021/11/10 01:10:25;;;;;;;1058.35;988.25;;;;;;;6.16;69.93;102309.81;691651;28;69294;-69
2021/11/10 01:10:47;;;;;;;1057.33;987.33;;;;;;;6.14;69.56;102306.38;689611;28;69405;-70
2021/11/10 01:11:08;;;;;;;1059.30;989.13;;;;;;;6.12;69.72;102309.16;686952;28;44393;-70
2021/11/10 01:11:31;;;;;;;1063.72;993.38;;;;;;;6.12;69.67;102309.16;686693;28;22389;-70
2021/11/10 01:11:55;;;;;;;1066.00;995.70;;;;;;;6.12;69.89;102309.16;682701;28;137784;-70
2021/11/10 01:12:30;;;;;;;1062.30;992.10;;;;;;;6.15;69.81;102312.63;685613;28;22362;-69
2021/11/10 01:12:59;;;;;;;1062.13;991.58;;;;;;;6.15;70.02;102309.94;686661;28;135973;-70
2021/11/10 01:13:25;;;;;;;1064.72;993.92;;;;;;;6.13;69.99;102308.19;688993;28;112876;-70
2021/11/10 01:13:52;;;;;;;1066.35;995.45;;;;;;;6.15;70.07;102307.25;686165;28;137474;-70
2021/11/10 01:14:14;;;;;;;1064.43;993.80;;;;;;;6.16;69.98;102309.81;693554;28;14169;-69
2021/11/10 01:14:37;;;;;;;1063.13;992.92;;;;;;;6.15;70.01;102304.56;691005;28;45169;-69
2021/11/10 01:14:59;;;;;;;1064.40;994.20;;;;;;;6.14;69.92;102311.72;688859;28;69379;-69
2021/11/10 01:15:21;;;;;;;1059.82;989.72;;;;;;;6.13;69.61;102302.84;685371;28;89262;-70
2021/11/10 01:15:45;;;;;;;1063.60;993.33;;;;;;;6.12;69.54;102300.25;685814;28;69460;-70
2021/11/10 01:16:07;;;;;;;1066.43;996.05;;;;;;;6.13;69.84;102305.53;686580;28;46416;-69
2021/11/10 01:16:30;;;;;;;1064.28;993.88;;;;;;;6.14;69.75;102309.06;687050;28;90473;-69
2021/11/10 01:16:51;;;;;;;1063.05;992.75;;;;;;;6.13;69.82;102305.53;689814;28;21505;-70
2021/11/10 01:17:19;;;;;;;1065.93;995.47;;;;;;;6.13;69.84;102300.16;683682;28;138179;-69
2021/11/10 01:17:41;;;;;;;1065.38;994.80;;;;;;;6.12;69.89;102303.78;689010;28;44251;-73
2021/11/10 01:18:03;;;;;;;1066.70;996.10;;;;;;;6.12;69.90;102298.44;687222;28;67460;-71
2021/11/10 01:18:27;;;;;;;1065.78;995.28;;;;;;;6.12;69.75;102301.13;687490;28;46392;-70
2021/11/10 01:18:54;;;;;;;1069.70;999.08;;;;;;;6.08;69.60;102283.53;687347;28;104425;-70
2021/11/10 01:19:19;;;;;;;1067.75;997.33;;;;;;;6.11;69.74;102295.84;688462;28;115088;-70
2021/11/10 01:19:41;;;;;;;1063.68;993.38;;;;;;;6.09;69.54;102287.06;689687;28;21526;-69
2021/11/10 01:20:07;;;;;;;1065.20;994.80;;;;;;;6.10;69.70;102296.84;685406;28;115041;-70
2021/11/10 01:20:28;;;;;;;1070.65;999.85;;;;;;;6.08;69.68;102290.72;690604;28;67448;-69
2021/11/10 01:20:49;;;;;;;1069.90;999.33;;;;;;;6.08;69.36;102296.06;691119;28;22409;-69
2021/11/10 01:21:11;;;;;;;1066.22;995.72;;;;;;;6.04;69.38;102289.22;689435;28;21516;-70
2021/11/10 01:21:32;;;;;;;1066.75;996.25;;;;;;;6.05;69.32;102290.94;689609;28;46367;-69
2021/11/10 01:21:53;;;;;;;1064.93;994.53;;;;;;;6.02;69.22;102292.03;687522;28;21503;-69
2021/11/10 01:22:15;;;;;;;1067.85;997.42;;;;;;;6.01;69.17;102290.28;688626;28;23291;-69
2021/11/10 01:22:37;;;;;;;1069.20;998.63;;;;;;;5.98;69.22;102295.03;689862;28;45019;-69
2021/11/10 01:22:59;;;;;;;1069.28;998.78;;;;;;;5.99;69.22;102294.94;692018;28;69170;-69
2021/11/10 01:23:21;;;;;;;1065.35;994.92;;;;;;;5.99;69.36;102299.41;690972;28;22385;-69
2021/11/10 01:23:44;;;;;;;1066.75;996.28;;;;;;;5.96;69.10;102295.09;689802;28;69291;-69
2021/11/10 01:24:05;;;;;;;1070.05;999.45;;;;;;;5.93;68.99;102292.63;691207;28;46378;-71
2021/11/10 01:24:26;;;;;;;1065.20;994.72;;;;;;;5.92;69.17;102290.91;688848;28;23456;-69
2021/11/10 01:24:48;;;;;;;1064.82;994.42;;;;;;;5.94;69.16;102297.00;686898;28;22391;-70
2021/11/10 01:25:11;;;;;;;1072.18;999.90;;;;;;;5.96;69.40;102297.78;686535;28;47204;-69
2021/11/10 01:25:32;;;;;;;1072.13;999.90;;;;;;;5.95;69.36;102301.44;688056;28;69286;-69
2021/11/10 01:25:54;;;;;;;1072.35;999.90;;;;;;;5.94;69.52;102292.53;689163;28;45243;-70
2021/11/10 01:26:15;;;;;;;1072.82;999.90;;;;;;;5.93;69.53;102292.63;693215;28;22234;-72
2021/11/10 01:26:38;;;;;;;1065.60;995.10;;;;;;;5.92;69.45;102296.28;689721;28;46390;-69
2021/11/10 01:27:00;;;;;;;1063.03;992.65;;;;;;;5.90;69.09;102299.06;691043;28;45294;-70
2021/11/10 01:27:21;;;;;;;1066.80;996.20;;;;;;;5.90;69.22;102295.53;690508;28;46205;-69
2021/11/10 01:27:43;;;;;;;1069.38;998.55;;;;;;;5.89;69.23;102299.16;687098;28;45387;-69
2021/11/10 01:28:07;;;;;;;1070.35;999.45;;;;;;;5.88;69.31;102294.81;689790;28;21355;-71
2021/11/10 01:28:32;;;;;;;1068.00;997.33;;;;;;;5.85;69.06;102293.19;685516;28;137591;-69
2021/11/10 01:28:54;;;;;;;1074.22;999.90;;;;;;;5.83;69.17;102292.44;689509;28;22467;-70
2021/11/10 01:29:16;;;;;;;1068.85;998.35;;;;;;;5.82;69.29;102290.72;685713;28;45388;-70
2021/11/10 01:29:39;;;;;;;1066.93;996.42;;;;;;;5.83;69.12;102297.81;684113;28;44449;-70
2021/11/10 01:30:00;;;;;;;1067.10;996.60;;;;;;;5.83;69.33;102300.47;686068;28;45249;-71
2021/11/10 01:30:22;;;;;;;1062.25;991.95;;;;;;;5.82;69.29;102295.22;689319;28;1570;-70
2021/11/10 01:30:44;;;;;;;1059.53;989.45;;;;;;;5.81;69.30;102298.88;690080;28;45294;-69
2021/11/10 01:31:07;;;;;;;1063.20;992.95;;;;;;;5.80;69.39;102298.00;686590;28;45411;-69
2021/11/10 01:31:28;;;;;;;1071.55;999.58;;;;;;;5.79;69.39;102298.97;688276;28;69464;-70
2021/11/10 01:31:51;;;;;;;1074.75;999.90;;;;;;;5.79;69.40;102304.34;688645;28;69422;-70
2021/11/10 01:32:14;;;;;;;1077.18;999.90;;;;;;;5.77;69.29;102299.06;690718;28;46387;-69
2021/11/10 01:32:38;;;;;;;1076.30;999.90;;;;;;;5.74;69.53;102290.41;691045;28;69212;-69
2021/11/10 01:33:02;;;;;;;1077.97;999.90;;;;;;;5.76;69.44;102299.19;690105;28;113681;-70
2021/11/10 01:33:23;;;;;;;1075.63;999.90;;;;;;;5.75;69.45;102292.09;694805;28;22480;-69
2021/11/10 01:33:48;;;;;;;1078.07;999.90;;;;;;;5.75;69.43;102290.28;688349;28;67012;-69
2021/11/10 01:34:09;;;;;;;1077.20;999.90;;;;;;;5.76;69.46;102288.47;686689;28;69227;-69
2021/11/10 01:34:33;;;;;;;1069.10;998.38;;;;;;;5.75;69.61;102281.38;685846;28;90706;-69
2021/11/10 01:34:54;;;;;;;1070.60;999.85;;;;;;;5.76;69.43;102289.31;690503;28;22421;-70
2021/11/10 01:35:17;;;;;;;1069.43;998.75;;;;;;;5.75;69.42;102292.97;692939;28;22199;-69
2021/11/10 01:35:38;;;;;;;1069.82;999.13;;;;;;;5.76;69.37;102291.13;691699;28;92361;-69
2021/11/10 01:35:59;;;;;;;1070.22;999.50;;;;;;;5.76;69.55;102281.25;690024;28;21843;-70
2021/11/10 01:36:21;;;;;;;1070.18;999.45;;;;;;;5.76;69.63;102283.94;684584;28;21568;-69
2021/11/10 01:36:43;;;;;;;1077.75;999.90;;;;;;;5.75;69.47;102279.56;685561;28;22110;-69
2021/11/10 01:37:05;;;;;;;1077.22;999.90;;;;;;;5.76;69.57;102278.59;684682;28;67500;-69
2021/11/10 01:37:27;;;;;;;1080.07;999.90;;;;;;;5.76;69.52;102283.94;685835;28;1722;-69
2021/11/10 01:37:49;;;;;;;1080.57;999.90;;;;;;;5.76;69.35;102275.91;687411;28;45083;-69
2021/11/10 01:38:10;;;;;;;1079.93;999.90;;;;;;;5.75;69.30;102276.00;688166;28;46431;-70
2021/11/10 01:38:32;;;;;;;1072.65;999.90;;;;;;;5.73;69.13;102278.78;690225;28;21536;-69
2021/11/10 01:38:54;;;;;;;1070.53;999.72;;;;;;;5.73;69.11;102277.94;690128;28;44372;-69
2021/11/10 01:39:15;;;;;;;1064.25;993.75;;;;;;;5.73;69.06;102272.59;688110;28;47193;-71